Time;durP1;ratioP1;P1;durP2;ratioP2;P2;SDS_P1;SDS_P2;PMS_P1;PMS_P2;Temp;Humidity;BMP_temperature;BMP_pressure;BME280_temperature;BME280_humidity;BME280_pressure;Samples;Min_cycle;Max_cycle;Signal;HPM_P1;HPM_P2
2024/04/02 00:00:34;;;;;;;2.15;1.35;;;11.50;99.90;;;;;;5021582;28;20037;-66
2024/04/02 00:03:00;;;;;;;3.70;1.35;;;11.60;99.90;;;;;;5015705;28;20061;-66
2024/04/02 00:05:26;;;;;;;1.85;1.30;;;11.60;99.90;;;;;;5020180;28;20121;-66
2024/04/02 00:07:52;;;;;;;2.53;1.10;;;11.50;99.90;;;;;;5019589;28;20492;-66
2024/04/02 00:10:17;;;;;;;1.90;1.25;;;11.50;99.90;;;;;;5020686;28;20070;-66
2024/04/02 00:12:45;;;;;;;6.00;1.45;;;11.60;99.90;;;;;;5021954;28;20032;-66
2024/04/02 00:15:11;;;;;;;1.52;1.40;;;11.60;99.90;;;;;;5023905;28;20033;-66
2024/04/02 00:17:37;;;;;;;1.50;1.40;;;11.60;99.90;;;;;;5022554;28;20057;-66
2024/04/02 00:20:06;;;;;;;3.22;1.55;;;11.70;99.90;;;;;;5020253;28;20049;-66
2024/04/02 00:22:32;;;;;;;3.88;1.92;;;11.70;99.90;;;;;;5022988;28;20093;-65
2024/04/02 00:24:58;;;;;;;4.05;1.60;;;11.70;99.90;;;;;;5022132;28;20041;-66
2024/04/02 00:27:23;;;;;;;3.88;2.30;;;11.70;99.90;;;;;;5023389;28;20034;-66
2024/04/02 00:29:49;;;;;;;1.50;1.40;;;11.80;99.90;;;;;;5023391;28;20033;-66
2024/04/02 00:32:15;;;;;;;2.30;1.73;;;11.80;99.90;;;;;;5023414;28;20317;-65
2024/04/02 00:34:44;;;;;;;3.20;1.67;;;11.70;99.90;;;;;;5020744;28;20037;-66
2024/04/02 00:37:10;;;;;;;1.95;1.75;;;11.50;99.90;;;;;;5018913;28;20104;-66
2024/04/02 00:39:38;;;;;;;3.28;1.80;;;11.30;99.90;;;;;;5020689;28;20112;-65
2024/04/02 00:42:04;;;;;;;4.50;1.85;;;11.20;99.90;;;;;;5022104;28;20087;-65
2024/04/02 00:44:32;;;;;;;1.75;1.63;;;11.10;99.90;;;;;;5023360;28;20681;-66
2024/04/02 00:46:58;;;;;;;3.63;1.90;;;11.10;99.90;;;;;;5021022;28;20033;-66
2024/04/02 00:49:25;;;;;;;2.10;1.90;;;11.00;99.90;;;;;;5023301;28;20033;-66
2024/04/02 00:51:51;;;;;;;2.53;1.90;;;11.00;99.90;;;;;;5023116;28;20037;-65
2024/04/02 00:54:17;;;;;;;3.88;1.70;;;10.90;99.90;;;;;;5023847;28;20041;-66
2024/04/02 00:56:44;;;;;;;2.85;2.17;;;10.80;99.90;;;;;;5023200;28;20021;-66
2024/04/02 00:59:10;;;;;;;2.17;1.60;;;10.80;99.90;;;;;;5021704;28;20030;-66
2024/04/02 01:01:37;;;;;;;1.70;1.55;;;10.70;99.90;;;;;;5023054;28;20037;-66
2024/04/02 01:04:03;;;;;;;1.98;1.27;;;10.70;99.90;;;;;;5022292;28;20605;-66
2024/04/02 01:06:29;;;;;;;1.60;1.50;;;10.70;99.90;;;;;;5022756;28;20029;-66
2024/04/02 01:08:58;;;;;;;2.97;1.83;;;10.80;99.90;;;;;;5019579;28;20030;-66
2024/04/02 01:11:24;;;;;;;1.58;1.48;;;10.80;99.90;;;;;;5021829;28;20037;-66
2024/04/02 01:13:51;;;;;;;1.73;1.35;;;10.80;99.90;;;;;;5022212;28;20044;-66
2024/04/02 01:16:17;;;;;;;4.28;1.30;;;10.60;99.90;;;;;;5018163;28;20041;-66
2024/04/02 01:18:46;;;;;;;1.85;1.20;;;10.70;99.90;;;;;;5022876;28;20038;-65
2024/04/02 01:21:13;;;;;;;1.45;1.33;;;10.70;99.90;;;;;;5022760;28;20109;-65
2024/04/02 01:23:39;;;;;;;2.10;1.50;;;10.60;99.90;;;;;;5022169;28;20063;-66
2024/04/02 01:26:04;;;;;;;2.13;1.60;;;10.60;99.90;;;;;;5022547;28;20045;-65
2024/04/02 01:28:30;;;;;;;3.13;1.60;;;10.50;99.90;;;;;;5018999;28;20021;-65
2024/04/02 01:30:56;;;;;;;2.08;1.23;;;10.50;99.90;;;;;;5021065;28;20029;-66
2024/04/02 01:33:22;;;;;;;2.95;1.67;;;10.50;99.90;;;;;;5022702;28;20627;-66
2024/04/02 01:35:47;;;;;;;3.25;1.40;;;10.50;99.90;;;;;;5021539;28;20056;-66
2024/04/02 01:38:14;;;;;;;1.40;1.20;;;10.40;99.90;;;;;;5021721;28;20501;-66
2024/04/02 01:40:39;;;;;;;1.98;1.17;;;10.20;99.90;;;;;;5022077;28;20041;-66
2024/04/02 01:43:06;;;;;;;1.60;1.10;;;10.10;99.90;;;;;;5019436;28;20076;-66
2024/04/02 01:45:32;;;;;;;3.92;1.20;;;10.10;99.90;;;;;;5020032;28;20057;-66
2024/04/02 01:47:57;;;;;;;2.97;1.52;;;10.00;99.90;;;;;;5019049;28;20556;-66
2024/04/02 01:50:23;;;;;;;1.88;1.55;;;10.10;99.90;;;;;;5022293;28;20129;-66
2024/04/02 01:52:49;;;;;;;1.85;1.25;;;10.10;99.90;;;;;;5017349;28;20044;-66
2024/04/02 01:55:18;;;;;;;2.85;0.98;;;10.10;99.90;;;;;;5022032;28;20064;-66
2024/04/02 01:57:43;;;;;;;1.63;1.17;;;10.00;99.90;;;;;;5018860;28;20145;-66
2024/04/02 02:00:10;;;;;;;1.35;1.00;;;10.10;99.90;;;;;;5022073;28;20021;-65
2024/04/02 02:02:35;;;;;;;2.13;0.90;;;10.10;99.90;;;;;;5022065;28;20035;-65
2024/04/02 02:05:01;;;;;;;3.95;0.98;;;10.00;99.90;;;;;;5019257;28;20029;-65
2024/04/02 02:07:27;;;;;;;2.42;1.20;;;10.00;99.90;;;;;;5016463;28;20774;-66
2024/04/02 02:09:53;;;;;;;4.53;1.05;;;10.00;99.90;;;;;;5019309;28;20029;-66
2024/04/02 02:12:19;;;;;;;2.20;1.05;;;10.00;99.90;;;;;;5020864;28;20044;-66
2024/04/02 02:14:45;;;;;;;2.92;1.08;;;10.00;99.90;;;;;;5021629;28;20497;-66
2024/04/02 02:17:10;;;;;;;1.45;0.98;;;10.10;99.90;;;;;;5021993;28;20086;-66
2024/04/02 02:19:36;;;;;;;1.15;1.05;;;10.00;99.90;;;;;;5020688;28;20037;-66
2024/04/02 02:22:03;;;;;;;4.45;1.00;;;10.00;99.90;;;;;;5020379;28;20028;-66
2024/04/02 02:24:29;;;;;;;2.05;1.15;;;9.90;99.90;;;;;;5021801;28;20041;-66
2024/04/02 02:26:56;;;;;;;0.93;0.90;;;9.90;99.90;;;;;;5024564;28;20052;-66
2024/04/02 02:29:25;;;;;;;2.15;0.90;;;10.00;99.90;;;;;;5025930;28;20461;-66
2024/04/02 02:31:54;;;;;;;1.50;1.00;;;10.10;99.90;;;;;;5025721;28;20140;-66
2024/04/02 02:34:19;;;;;;;1.02;0.90;;;10.10;99.90;;;;;;5021086;28;20037;-66
2024/04/02 02:36:45;;;;;;;2.15;1.08;;;10.10;99.90;;;;;;5021988;28;20037;-66
2024/04/02 02:39:11;;;;;;;2.80;1.33;;;10.10;99.90;;;;;;5022801;28;20033;-66
2024/04/02 02:41:37;;;;;;;2.83;1.10;;;10.10;99.90;;;;;;5022994;28;20449;-66
2024/04/02 02:44:04;;;;;;;1.95;1.27;;;10.10;99.90;;;;;;5023773;28;20025;-66
2024/04/02 02:46:30;;;;;;;4.28;1.02;;;10.10;99.90;;;;;;5021801;28;20485;-66
2024/04/02 02:48:58;;;;;;;2.53;1.40;;;10.00;99.90;;;;;;5025782;28;20041;-66
2024/04/02 02:51:24;;;;;;;1.98;1.13;;;9.90;99.90;;;;;;5026003;28;20032;-66
2024/04/02 02:53:49;;;;;;;3.00;1.65;;;10.00;99.90;;;;;;5025568;28;20033;-66
2024/04/02 02:56:15;;;;;;;2.30;1.15;;;10.10;99.90;;;;;;5023817;28;20444;-66
2024/04/02 02:58:42;;;;;;;1.58;0.90;;;10.20;99.90;;;;;;5025476;28;20046;-66
2024/04/02 03:01:08;;;;;;;1.50;1.05;;;10.30;99.90;;;;;;5024076;28;20036;-66
2024/04/02 03:03:34;;;;;;;1.02;0.82;;;10.40;99.90;;;;;;5025120;28;20515;-66
2024/04/02 03:06:00;;;;;;;2.00;1.00;;;10.40;99.90;;;;;;5024093;28;20057;-66
2024/04/02 03:08:26;;;;;;;4.10;1.08;;;10.40;99.90;;;;;;5021626;28;20116;-66
2024/04/02 03:11:04;;;;;;;1.77;1.10;;;10.40;99.90;;;;;;5023200;28;20064;-66
2024/04/02 03:13:34;;;;;;;1.58;1.05;;;10.40;99.90;;;;;;5024959;28;20117;-66
2024/04/02 03:16:02;;;;;;;1.67;0.95;;;10.40;99.90;;;;;;5023680;28;20079;-66
2024/04/02 03:18:27;;;;;;;2.80;1.13;;;10.40;99.90;;;;;;5023226;28;20527;-66
2024/04/02 03:20:53;;;;;;;1.27;1.15;;;10.40;99.90;;;;;;5024658;28;20116;-66
2024/04/02 03:23:20;;;;;;;4.63;1.15;;;10.30;99.90;;;;;;5022090;28;20060;-66
2024/04/02 03:26:00;;;;;;;2.05;1.17;;;10.30;99.90;;;;;;5022065;28;20467;-66
2024/04/02 03:28:28;;;;;;;1.77;1.30;;;10.40;99.90;;;;;;5023129;28;20037;-66
2024/04/02 03:30:58;;;;;;;4.60;1.13;;;10.40;99.90;;;;;;5022285;28;20029;-66
2024/04/02 03:33:26;;;;;;;1.23;1.10;;;10.40;99.90;;;;;;5023353;28;20029;-66
2024/04/02 03:35:51;;;;;;;3.72;1.75;;;10.40;99.90;;;;;;5022699;28;20155;-66
2024/04/02 03:38:17;;;;;;;4.38;1.50;;;10.50;99.90;;;;;;5023556;28;20035;-65
2024/04/02 03:40:44;;;;;;;1.70;1.33;;;10.60;99.90;;;;;;5024952;28;20059;-66
2024/04/02 03:43:10;;;;;;;2.78;1.45;;;10.70;99.90;;;;;;5020629;28;20034;-66
2024/04/02 03:45:42;;;;;;;1.50;1.40;;;10.70;99.90;;;;;;5022377;28;20390;-66
2024/04/02 03:48:09;;;;;;;2.00;1.80;;;10.70;99.90;;;;;;5024543;28;20770;-66
2024/04/02 03:50:38;;;;;;;3.67;1.60;;;10.80;99.90;;;;;;5023781;28;20029;-66
2024/04/02 03:53:06;;;;;;;1.63;1.38;;;10.80;99.90;;;;;;5023342;28;20035;-66
2024/04/02 03:55:35;;;;;;;2.30;1.40;;;10.80;99.90;;;;;;5019856;28;20068;-66
2024/04/02 03:58:02;;;;;;;3.33;1.48;;;10.80;99.90;;;;;;5022694;28;20037;-66
2024/04/02 04:00:28;;;;;;;1.75;1.30;;;10.90;99.90;;;;;;5019553;28;20038;-66
2024/04/02 04:02:55;;;;;;;2.20;1.70;;;10.90;99.90;;;;;;5023191;28;20689;-66
2024/04/02 04:05:21;;;;;;;2.28;1.50;;;10.90;99.90;;;;;;5021030;28;20109;-66
2024/04/02 04:07:47;;;;;;;4.25;1.77;;;10.90;99.90;;;;;;5021566;28;20037;-66
2024/04/02 04:10:13;;;;;;;2.22;1.50;;;10.90;99.90;;;;;;5023462;28;20550;-66
2024/04/02 04:12:39;;;;;;;2.08;1.70;;;10.90;99.90;;;;;;5023831;28;20436;-66
2024/04/02 04:15:05;;;;;;;1.98;1.77;;;10.80;99.90;;;;;;5021178;28;20036;-66
2024/04/02 04:17:31;;;;;;;1.98;1.58;;;10.80;99.90;;;;;;5022821;28;20034;-66
2024/04/02 04:19:56;;;;;;;1.70;1.58;;;10.70;99.90;;;;;;5019093;28;20029;-66
2024/04/02 04:22:22;;;;;;;1.95;1.63;;;10.70;99.90;;;;;;5022368;28;20366;-66
2024/04/02 04:25:02;;;;;;;4.07;1.92;;;10.70;99.90;;;;;;5020242;28;20124;-66
2024/04/02 04:27:36;;;;;;;2.08;1.88;;;10.70;99.90;;;;;;5023069;28;20502;-66
2024/04/02 04:30:06;;;;;;;4.07;1.90;;;10.60;99.90;;;;;;5022512;28;20524;-66
2024/04/02 04:32:35;;;;;;;2.25;1.90;;;10.60;99.90;;;;;;5022481;28;20037;-66
2024/04/02 04:35:01;;;;;;;3.03;2.15;;;10.50;99.90;;;;;;5022105;28;20050;-66
2024/04/02 04:37:30;;;;;;;2.20;1.80;;;10.50;99.90;;;;;;5023179;28;20477;-66
2024/04/02 04:39:56;;;;;;;4.70;2.45;;;10.50;99.90;;;;;;5023084;28;20037;-65
2024/04/02 04:42:23;;;;;;;2.50;2.10;;;10.50;99.90;;;;;;5023364;28;20029;-66
2024/04/02 04:44:49;;;;;;;5.95;2.33;;;10.50;99.90;;;;;;5022002;28;20477;-66
2024/04/02 04:47:15;;;;;;;4.13;2.03;;;10.50;99.90;;;;;;5019973;28;20041;-66
2024/04/02 04:49:41;;;;;;;4.15;2.13;;;10.50;99.90;;;;;;5020453;28;20054;-66
2024/04/02 04:52:07;;;;;;;2.15;1.83;;;10.50;99.90;;;;;;5023180;28;20033;-66
2024/04/02 04:54:34;;;;;;;3.05;1.73;;;10.50;99.90;;;;;;5021601;28;20037;-66
2024/04/02 04:56:59;;;;;;;4.07;2.42;;;10.50;99.90;;;;;;5021989;28;20025;-66
2024/04/02 04:59:25;;;;;;;7.38;2.35;;;10.50;99.90;;;;;;5022984;28;21009;-66
2024/04/02 05:01:51;;;;;;;2.88;2.58;;;10.50;99.90;;;;;;5022864;28;20128;-66
2024/04/02 05:04:17;;;;;;;7.97;2.40;;;10.50;99.90;;;;;;5020144;28;20527;-66
2024/04/02 05:06:43;;;;;;;3.85;2.38;;;10.50;99.90;;;;;;5020375;28;20124;-66
2024/04/02 05:09:12;;;;;;;2.58;2.10;;;10.50;99.90;;;;;;5023207;28;20076;-66
2024/04/02 05:11:38;;;;;;;4.50;2.55;;;10.50;99.90;;;;;;5021016;28;20037;-65
2024/04/02 05:14:04;;;;;;;2.58;2.38;;;10.50;99.90;;;;;;5019843;28;20046;-66
2024/04/02 05:16:30;;;;;;;2.90;2.60;;;10.40;99.90;;;;;;5022296;28;20033;-66
2024/04/02 05:18:56;;;;;;;4.95;2.63;;;10.30;99.90;;;;;;5022686;28;20057;-66
2024/04/02 05:21:22;;;;;;;3.45;2.60;;;10.30;99.90;;;;;;5019410;28;20456;-66
2024/04/02 05:23:48;;;;;;;3.05;2.47;;;10.40;99.90;;;;;;5021662;28;20558;-66
2024/04/02 05:26:14;;;;;;;2.97;2.53;;;10.30;99.90;;;;;;5020998;28;20508;-66
2024/04/02 05:28:40;;;;;;;6.45;3.08;;;10.30;99.90;;;;;;5019762;28;20035;-66
2024/04/02 05:31:07;;;;;;;2.95;2.65;;;10.30;99.90;;;;;;5018774;28;20046;-65
2024/04/02 05:33:33;;;;;;;5.97;2.90;;;10.40;99.90;;;;;;5020883;28;20488;-66
2024/04/02 05:36:00;;;;;;;3.08;2.78;;;10.40;99.90;;;;;;5019510;28;20033;-66
2024/04/02 05:38:26;;;;;;;2.88;2.42;;;10.40;99.90;;;;;;5022481;28;20060;-66
2024/04/02 05:40:52;;;;;;;4.28;3.15;;;10.40;99.90;;;;;;5021730;28;20026;-65
2024/04/02 05:43:18;;;;;;;4.35;3.45;;;10.50;99.90;;;;;;5019783;28;20052;-65
2024/04/02 05:45:44;;;;;;;7.68;2.78;;;10.50;99.90;;;;;;5020564;28;20044;-66
2024/04/02 05:48:09;;;;;;;3.85;2.90;;;10.50;99.90;;;;;;5020638;28;20040;-66
2024/04/02 05:50:35;;;;;;;5.22;3.25;;;10.60;99.90;;;;;;5021316;28;20037;-66
2024/04/02 05:53:01;;;;;;;4.00;2.90;;;10.60;99.90;;;;;;5021583;28;20106;-65
2024/04/02 05:55:27;;;;;;;5.35;2.65;;;10.70;99.90;;;;;;5016442;28;20044;-66
2024/04/02 05:57:55;;;;;;;4.07;2.63;;;10.80;99.90;;;;;;5022255;28;20037;-66
2024/04/02 06:00:21;;;;;;;3.95;3.28;;;10.80;99.90;;;;;;5019632;28;20014;-66
2024/04/02 06:02:47;;;;;;;5.22;2.90;;;11.00;99.90;;;;;;5018993;28;20033;-66
2024/04/02 06:05:12;;;;;;;3.05;2.75;;;11.20;99.90;;;;;;5019526;28;20033;-66
2024/04/02 06:07:38;;;;;;;4.10;2.80;;;11.30;99.90;;;;;;5020825;28;20808;-66
2024/04/02 06:10:04;;;;;;;5.97;3.10;;;11.50;99.90;;;;;;5022071;28;20481;-65
2024/04/02 06:12:31;;;;;;;5.50;2.47;;;11.50;99.90;;;;;;5021732;28;20489;-66
2024/04/02 06:14:56;;;;;;;5.00;3.03;;;11.70;99.90;;;;;;5017012;28;20034;-66
2024/04/02 06:17:22;;;;;;;2.40;2.20;;;12.00;99.90;;;;;;5020269;28;20026;-66
2024/04/02 06:19:48;;;;;;;4.35;3.10;;;12.50;99.90;;;;;;5018507;28;20607;-66
2024/04/02 06:22:16;;;;;;;5.15;3.05;;;12.90;99.90;;;;;;5019007;28;20104;-66
2024/04/02 06:24:42;;;;;;;2.30;2.10;;;12.90;99.90;;;;;;5020878;28;20033;-66
2024/04/02 06:27:08;;;;;;;2.85;2.20;;;12.70;99.90;;;;;;5020980;28;20025;-66
2024/04/02 06:29:34;;;;;;;4.95;2.25;;;12.60;99.90;;;;;;5019156;28;20236;-68
2024/04/02 06:32:00;;;;;;;3.83;2.63;;;12.50;99.90;;;;;;5021692;28;20041;-69
2024/04/02 06:34:25;;;;;;;4.57;2.45;;;12.30;99.90;;;;;;5022059;28;20034;-68
2024/04/02 06:36:51;;;;;;;2.90;2.33;;;12.20;99.90;;;;;;5021081;28;20041;-70
2024/04/02 06:39:17;;;;;;;3.55;2.33;;;12.00;99.90;;;;;;5019685;28;20032;-69
2024/04/02 06:41:43;;;;;;;2.92;2.60;;;12.00;99.90;;;;;;5020013;28;20096;-67
2024/04/02 06:44:08;;;;;;;2.40;2.10;;;12.10;99.90;;;;;;5021416;28;20022;-69
2024/04/02 06:46:34;;;;;;;3.75;2.38;;;12.20;99.90;;;;;;5021296;28;20030;-70
2024/04/02 06:49:01;;;;;;;7.18;2.33;;;12.70;99.90;;;;;;5018332;28;20029;-67
2024/04/02 06:51:27;;;;;;;5.50;2.50;;;13.50;99.90;;;;;;5021118;28;20103;-66
2024/04/02 06:53:53;;;;;;;3.85;1.85;;;13.70;99.90;;;;;;5015025;28;20125;-67
2024/04/02 06:56:19;;;;;;;8.02;2.40;;;13.50;99.90;;;;;;5020224;28;20029;-66
2024/04/02 06:58:44;;;;;;;2.00;1.70;;;13.30;99.90;;;;;;5021597;28;20035;-66
2024/04/02 07:01:11;;;;;;;3.05;2.05;;;13.40;99.90;;;;;;5019245;28;20032;-67
2024/04/02 07:03:37;;;;;;;3.92;2.20;;;13.70;99.90;;;;;;5021217;28;20029;-69
2024/04/02 07:06:04;;;;;;;4.03;1.80;;;14.10;99.90;;;;;;5021148;28;20031;-67
2024/04/02 07:08:29;;;;;;;3.67;2.20;;;14.90;99.90;;;;;;5016819;28;20034;-67
2024/04/02 07:11:03;;;;;;;2.50;1.95;;;15.30;99.90;;;;;;5017775;28;20032;-65
2024/04/02 07:13:33;;;;;;;3.25;1.60;;;15.90;99.90;;;;;;5023768;28;20519;-68
2024/04/02 07:16:01;;;;;;;2.17;1.67;;;16.20;99.90;;;;;;5024070;28;20037;-68
2024/04/02 07:18:33;;;;;;;2.90;1.92;;;16.10;99.90;;;;;;5024725;28;20033;-68
2024/04/02 07:21:06;;;;;;;1.85;1.75;;;16.40;99.90;;;;;;5022241;28;20036;-69
2024/04/02 07:23:33;;;;;;;2.47;1.90;;;16.70;99.90;;;;;;5021319;28;20040;-68
2024/04/02 07:25:59;;;;;;;2.00;1.80;;;16.70;99.60;;;;;;5022318;28;20057;-68
2024/04/02 07:28:26;;;;;;;4.95;2.17;;;16.50;99.80;;;;;;5022991;28;20029;-68
2024/04/02 07:30:52;;;;;;;1.67;1.50;;;16.10;99.90;;;;;;5015403;28;20041;-65
2024/04/02 07:33:18;;;;;;;1.60;1.45;;;15.70;99.90;;;;;;5024574;28;20029;-69
2024/04/02 07:35:44;;;;;;;1.38;1.27;;;15.40;99.90;;;;;;5023211;28;20032;-69
2024/04/02 07:38:11;;;;;;;2.45;1.65;;;15.50;99.90;;;;;;5024241;28;20026;-68
2024/04/02 07:40:37;;;;;;;2.75;1.40;;;15.40;99.90;;;;;;5024054;28;20053;-69
2024/04/02 07:43:05;;;;;;;4.05;1.50;;;15.40;99.90;;;;;;5021431;28;20029;-69
2024/04/02 07:45:32;;;;;;;10.18;1.50;;;15.10;99.90;;;;;;5024150;28;20036;-67
2024/04/02 07:47:58;;;;;;;5.68;1.42;;;15.00;99.90;;;;;;5023150;28;20546;-66
2024/04/02 07:50:28;;;;;;;2.25;1.33;;;14.90;99.90;;;;;;5023526;28;20049;-68
2024/04/02 07:52:54;;;;;;;2.35;1.20;;;14.90;99.90;;;;;;5023608;28;20041;-71
2024/04/02 07:55:19;;;;;;;2.20;1.30;;;15.10;99.90;;;;;;5022221;28;20061;-68
2024/04/02 07:57:45;;;;;;;1.90;1.30;;;15.20;99.90;;;;;;5024327;28;20034;-70
2024/04/02 08:00:12;;;;;;;2.30;1.05;;;15.40;99.90;;;;;;5020259;28;20842;-69
2024/04/02 08:02:37;;;;;;;4.82;1.20;;;15.60;99.90;;;;;;5021933;28;20033;-68
2024/04/02 08:05:03;;;;;;;2.38;1.20;;;15.70;99.90;;;;;;5022650;28;20040;-68
2024/04/02 08:07:29;;;;;;;3.90;1.30;;;15.50;99.90;;;;;;5023699;28;20033;-75
2024/04/02 08:09:55;;;;;;;3.65;1.40;;;15.30;99.90;;;;;;5024397;28;20040;-75
2024/04/02 08:12:21;;;;;;;3.45;1.30;;;15.30;99.90;;;;;;5024390;28;20037;-74
2024/04/02 08:14:47;;;;;;;4.18;2.78;;;15.20;99.90;;;;;;5022897;28;20030;-76
2024/04/02 08:17:15;;;;;;;5.15;1.58;;;15.10;99.90;;;;;;5024441;28;20037;-74
2024/04/02 08:19:42;;;;;;;5.43;2.50;;;15.20;99.90;;;;;;5022677;28;20029;-75
2024/04/02 08:22:08;;;;;;;5.30;3.75;;;15.20;99.90;;;;;;5023590;28;20694;-76
2024/04/02 08:24:35;;;;;;;4.88;1.33;;;15.20;99.90;;;;;;5023478;28;20570;-76
2024/04/02 08:27:02;;;;;;;3.28;1.40;;;15.30;99.90;;;;;;5022565;28;20029;-74
2024/04/02 08:29:28;;;;;;;14.98;11.55;;;15.20;99.90;;;;;;5019872;28;20449;-72
2024/04/02 08:31:53;;;;;;;3.53;2.28;;;15.20;99.90;;;;;;5005759;28;20029;-74
2024/04/02 08:34:19;;;;;;;14.27;5.13;;;15.10;99.90;;;;;;5020945;28;20468;-73
2024/04/02 08:36:45;;;;;;;13.00;5.95;;;15.20;99.90;;;;;;5020865;28;20137;-72
2024/04/02 08:39:12;;;;;;;8.50;3.97;;;15.20;99.90;;;;;;5021302;28;20033;-71
2024/04/02 08:41:40;;;;;;;4.22;2.95;;;15.10;99.90;;;;;;5022273;28;20113;-71
2024/04/02 08:44:05;;;;;;;5.10;2.00;;;15.10;99.90;;;;;;5020410;28;20030;-71
2024/04/02 08:46:35;;;;;;;1.25;1.00;;;15.10;99.90;;;;;;5016422;28;20029;-69
2024/04/02 08:49:02;;;;;;;1.83;0.98;;;15.30;99.90;;;;;;5020652;28;20718;-68
2024/04/02 08:51:32;;;;;;;1.98;0.70;;;15.40;99.90;;;;;;5020509;28;20036;-67
2024/04/02 08:53:59;;;;;;;2.40;1.60;;;15.60;99.90;;;;;;5020697;28;20488;-67
2024/04/02 08:56:25;;;;;;;2.90;1.50;;;15.50;99.90;;;;;;5021068;28;20041;-67
2024/04/02 08:58:52;;;;;;;4.15;2.05;;;15.30;99.90;;;;;;5022957;28;20023;-67
2024/04/02 09:01:19;;;;;;;4.68;0.88;;;15.30;99.90;;;;;;5019405;28;20092;-68
2024/04/02 09:03:46;;;;;;;0.88;0.70;;;15.20;99.90;;;;;;5020483;28;20029;-67
2024/04/02 09:06:13;;;;;;;2.05;0.80;;;15.20;99.90;;;;;;5022358;28;20852;-67
2024/04/02 09:08:48;;;;;;;1.42;0.70;;;15.40;99.30;;;;;;5021336;28;20033;-67
2024/04/02 09:11:16;;;;;;;2.85;0.90;;;15.50;98.90;;;;;;5020902;28;20817;-67
2024/04/02 09:13:42;;;;;;;1.58;0.60;;;15.90;99.30;;;;;;5022669;28;20033;-67
2024/04/02 09:16:10;;;;;;;2.13;0.80;;;16.50;98.90;;;;;;5022187;28;20036;-67
2024/04/02 09:18:45;;;;;;;1.70;0.60;;;17.10;98.90;;;;;;5023192;28;20485;-67
2024/04/02 09:21:15;;;;;;;3.37;0.93;;;17.30;96.70;;;;;;5020548;28;20025;-67
2024/04/02 09:23:41;;;;;;;1.92;0.70;;;17.40;95.70;;;;;;5019031;28;20128;-67
2024/04/02 09:26:10;;;;;;;3.10;1.00;;;17.30;95.60;;;;;;5018118;28;20083;-67
2024/04/02 09:28:39;;;;;;;1.38;0.80;;;17.00;96.50;;;;;;5021081;28;20037;-67
2024/04/02 09:31:05;;;;;;;4.80;2.75;;;16.90;95.90;;;;;;5021254;28;20044;-67
2024/04/02 09:33:35;;;;;;;3.17;0.68;;;16.70;96.60;;;;;;5020680;28;20037;-67
2024/04/02 09:36:01;;;;;;;2.80;0.80;;;16.70;96.50;;;;;;5019374;28;20555;-67
2024/04/02 09:38:28;;;;;;;5.55;0.60;;;16.60;96.30;;;;;;5020822;28;20038;-67
2024/04/02 09:40:55;;;;;;;1.05;0.52;;;16.20;96.50;;;;;;5020744;28;20033;-67
2024/04/02 09:43:23;;;;;;;4.28;0.82;;;16.00;96.90;;;;;;5019289;28;20025;-67
2024/04/02 09:45:49;;;;;;;5.82;0.82;;;15.90;97.30;;;;;;5019378;28;20584;-67
2024/04/02 09:48:18;;;;;;;3.00;0.60;;;15.80;97.50;;;;;;5021619;28;20393;-67
2024/04/02 09:50:44;;;;;;;1.67;0.60;;;15.70;96.90;;;;;;5022458;28;20052;-67
2024/04/02 09:53:12;;;;;;;1.85;0.50;;;15.60;97.30;;;;;;5019648;28;20121;-67
2024/04/02 09:55:40;;;;;;;2.00;0.40;;;15.50;97.40;;;;;;5019937;28;20029;-67
2024/04/02 09:58:09;;;;;;;0.95;0.60;;;15.20;98.00;;;;;;5019034;28;20033;-67
2024/04/02 10:00:36;;;;;;;3.40;1.50;;;15.30;98.90;;;;;;5020145;28;20030;-67
2024/04/02 10:03:05;;;;;;;1.15;1.00;;;15.60;98.00;;;;;;5020210;28;20614;-67
2024/04/02 10:05:34;;;;;;;4.97;1.95;;;15.60;97.70;;;;;;5021229;28;20686;-66
2024/04/02 10:08:01;;;;;;;5.78;2.80;;;15.50;97.50;;;;;;5020055;28;20142;-67
2024/04/02 10:10:30;;;;;;;3.45;1.55;;;15.70;97.80;;;;;;5019628;28;20070;-67
2024/04/02 10:12:56;;;;;;;4.75;1.70;;;15.70;97.90;;;;;;5020215;28;20036;-67
2024/04/02 10:15:23;;;;;;;1.95;1.02;;;16.20;98.80;;;;;;5018978;28;20060;-68
2024/04/02 10:17:59;;;;;;;3.92;0.95;;;17.00;96.50;;;;;;5019046;28;20041;-67
2024/04/02 10:20:30;;;;;;;2.80;1.00;;;17.40;95.80;;;;;;5019464;28;20033;-67
2024/04/02 10:22:57;;;;;;;4.13;1.08;;;18.00;94.90;;;;;;5019839;28;20073;-67
2024/04/02 10:25:25;;;;;;;2.50;1.20;;;18.40;93.20;;;;;;5017885;28;20115;-67
2024/04/02 10:27:57;;;;;;;5.22;2.10;;;17.90;93.20;;;;;;5020307;28;20045;-67
2024/04/02 10:30:27;;;;;;;3.45;1.40;;;17.80;94.20;;;;;;5018461;28;20033;-67
2024/04/02 10:32:57;;;;;;;5.38;3.08;;;17.90;93.10;;;;;;5017637;28;20029;-67
2024/04/02 10:35:27;;;;;;;8.40;3.40;;;17.70;93.30;;;;;;5017999;28;20037;-67
2024/04/02 10:37:57;;;;;;;4.20;0.88;;;17.50;94.00;;;;;;5019030;28;20040;-67
2024/04/02 10:40:24;;;;;;;2.75;0.90;;;17.30;93.00;;;;;;5020695;28;20044;-67
2024/04/02 10:42:52;;;;;;;2.33;0.90;;;17.20;93.10;;;;;;5020658;28;20037;-67
2024/04/02 10:45:19;;;;;;;1.80;1.30;;;17.00;93.90;;;;;;5016373;28;20030;-67
2024/04/02 10:47:46;;;;;;;6.47;2.75;;;16.60;93.90;;;;;;5024349;28;20040;-67
2024/04/02 10:50:15;;;;;;;8.45;2.88;;;16.30;94.30;;;;;;5022713;28;20051;-67
2024/04/02 10:52:42;;;;;;;7.82;3.15;;;15.90;95.10;;;;;;5023550;28;20772;-67
2024/04/02 10:55:08;;;;;;;10.77;4.20;;;15.80;95.80;;;;;;5024995;28;20063;-67
2024/04/02 10:57:34;;;;;;;4.45;1.38;;;15.90;96.20;;;;;;5025057;28;20025;-67
2024/04/02 11:00:04;;;;;;;8.00;3.10;;;16.20;96.10;;;;;;5022733;28;20071;-67
2024/04/02 11:02:34;;;;;;;3.75;1.23;;;16.40;95.70;;;;;;5023371;28;20128;-67
2024/04/02 11:05:00;;;;;;;1.40;0.85;;;16.60;95.50;;;;;;5023783;28;20087;-67
2024/04/02 11:07:29;;;;;;;1.55;0.70;;;16.60;94.50;;;;;;5022493;28;20033;-67
2024/04/02 11:09:56;;;;;;;1.42;0.75;;;16.50;95.30;;;;;;5022475;28;20037;-67
2024/04/02 11:12:23;;;;;;;2.55;1.27;;;16.50;94.90;;;;;;5022165;28;20175;-67
2024/04/02 11:14:53;;;;;;;1.05;0.75;;;16.60;94.70;;;;;;5020500;28;20061;-67
2024/04/02 11:17:20;;;;;;;2.92;0.65;;;16.50;93.90;;;;;;5022448;28;20025;-67
2024/04/02 11:19:45;;;;;;;1.98;0.70;;;16.40;94.50;;;;;;5023617;28;20483;-67
2024/04/02 11:25:11;;;;;;;5.75;1.13;;;16.20;94.40;;;;;;5023049;28;20034;-67
2024/04/02 11:27:38;;;;;;;3.88;1.00;;;15.90;94.50;;;;;;5023625;28;20040;-67
2024/04/02 11:30:04;;;;;;;1.50;0.70;;;15.60;95.20;;;;;;5022708;28;20029;-67
2024/04/02 11:32:31;;;;;;;1.30;0.75;;;15.50;95.60;;;;;;5023225;28;20049;-67
2024/04/02 11:35:01;;;;;;;1.45;1.08;;;15.50;96.50;;;;;;5023288;28;20037;-67
2024/04/02 11:37:28;;;;;;;2.60;0.80;;;15.30;95.70;;;;;;5022744;28;20036;-68
2024/04/02 11:39:55;;;;;;;2.15;0.80;;;15.30;96.90;;;;;;5024716;28;20033;-68
2024/04/02 11:42:21;;;;;;;2.42;0.80;;;15.50;97.00;;;;;;5022489;28;20502;-67
2024/04/02 11:44:47;;;;;;;3.67;0.75;;;15.70;96.90;;;;;;5021838;28;20733;-68
2024/04/02 11:47:13;;;;;;;4.28;1.60;;;16.00;95.60;;;;;;5023401;28;20675;-69
2024/04/02 11:49:41;;;;;;;1.65;0.82;;;16.30;96.30;;;;;;5023888;28;20036;-68
2024/04/02 11:52:07;;;;;;;3.10;0.85;;;16.60;95.00;;;;;;5019577;28;20062;-68
2024/04/02 11:54:33;;;;;;;2.10;0.80;;;16.40;94.40;;;;;;5018908;28;20425;-68
2024/04/02 12:02:42;;;;;;;0.98;0.50;;;16.00;94.40;;;;;;5023686;28;20067;-72
2024/04/02 12:05:09;;;;;;;1.23;0.47;;;16.00;95.30;;;;;;5023636;28;20037;-72
2024/04/02 12:07:35;;;;;;;2.97;0.60;;;16.10;95.00;;;;;;5020102;28;20037;-71
2024/04/02 12:10:04;;;;;;;1.13;0.52;;;16.20;95.20;;;;;;5018950;28;20610;-72
2024/04/02 12:12:30;;;;;;;1.85;0.75;;;16.30;95.40;;;;;;5022664;28;20057;-72
2024/04/02 12:14:57;;;;;;;1.25;0.60;;;16.40;95.50;;;;;;5022236;28;20049;-72
2024/04/02 12:17:23;;;;;;;3.50;0.90;;;16.60;95.10;;;;;;5021929;28;20032;-72
2024/04/02 12:25:13;;;;;;;0.82;0.65;;;16.90;94.50;;;;;;1456995;26;20050;-70
2024/04/02 12:27:39;;;;;;;3.25;1.05;;;17.10;93.20;;;;;;4972548;23;20070;-70
2024/04/02 12:30:05;;;;;;;3.75;0.70;;;17.30;93.20;;;;;;4968441;28;20554;-70
2024/04/02 12:43:19;;;;;;;2.83;0.60;;;16.70;92.60;;;;;;4264034;26;20082;-67
2024/04/02 12:45:52;;;;;;;1.27;0.65;;;16.50;94.80;;;;;;4958638;23;20071;-69
2024/04/02 12:48:17;;;;;;;0.90;0.60;;;16.40;95.90;;;;;;4942611;28;20548;-69
2024/04/02 12:50:53;;;;;;;3.05;0.98;;;16.30;94.70;;;;;;4944537;28;20031;-69
2024/04/02 12:53:22;;;;;;;1.67;1.00;;;16.30;95.40;;;;;;4944333;28;20038;-69
2024/04/02 12:55:51;;;;;;;2.60;0.88;;;16.30;94.60;;;;;;4962092;23;21070;-76
2024/04/02 12:58:17;;;;;;;6.05;2.20;;;16.30;94.60;;;;;;4963147;28;20069;-70
2024/04/02 13:00:43;;;;;;;2.97;0.90;;;16.30;93.50;;;;;;4964160;28;20190;-70
2024/04/02 13:03:09;;;;;;;1.50;0.70;;;16.30;94.00;;;;;;4962513;28;21089;-68
2024/04/02 13:05:38;;;;;;;2.88;1.23;;;16.30;93.70;;;;;;4961131;28;20090;-68
2024/04/02 13:08:05;;;;;;;1.05;0.60;;;16.30;94.10;;;;;;4948439;28;20346;-67